sensor_id;sensor_type;location;lat;lon;timestamp;temperature;humidity
23637;DHT22;11995;50.842;4.456;2022-12-11T00:02:17;2.70;99.90
23637;DHT22;11995;50.842;4.456;2022-12-11T00:04:45;2.60;99.90
23637;DHT22;11995;50.842;4.456;2022-12-11T00:07:12;2.60;99.90
23637;DHT22;11995;50.842;4.456;2022-12-11T00:09:40;2.60;99.90
23637;DHT22;11995;50.842;4.456;2022-12-11T00:12:07;2.60;99.90
23637;DHT22;11995;50.842;4.456;2022-12-11T00:14:35;2.60;99.90
23637;DHT22;11995;50.842;4.456;2022-12-11T00:17:03;2.80;99.90
23637;DHT22;11995;50.842;4.456;2022-12-11T00:19:30;2.80;99.90
23637;DHT22;11995;50.842;4.456;2022-12-11T00:21:58;2.80;99.90
23637;DHT22;11995;50.842;4.456;2022-12-11T00:24:27;2.90;99.90
23637;DHT22;11995;50.842;4.456;2022-12-11T00:26:54;2.80;99.90
23637;DHT22;11995;50.842;4.456;2022-12-11T00:29:22;2.80;99.90
23637;DHT22;11995;50.842;4.456;2022-12-11T00:31:49;2.70;99.90
23637;DHT22;11995;50.842;4.456;2022-12-11T00:34:17;2.70;99.90
23637;DHT22;11995;50.842;4.456;2022-12-11T00:36:44;2.80;99.90
23637;DHT22;11995;50.842;4.456;2022-12-11T00:39:12;2.70;99.90
23637;DHT22;11995;50.842;4.456;2022-12-11T00:41:39;2.90;99.90
23637;DHT22;11995;50.842;4.456;2022-12-11T00:44:07;2.90;99.90
23637;DHT22;11995;50.842;4.456;2022-12-11T00:46:35;2.80;99.90
23637;DHT22;11995;50.842;4.456;2022-12-11T00:49:03;2.80;99.90
23637;DHT22;11995;50.842;4.456;2022-12-11T00:51:30;2.60;99.90
23637;DHT22;11995;50.842;4.456;2022-12-11T00:53:58;2.80;99.90
23637;DHT22;11995;50.842;4.456;2022-12-11T00:56:25;3.00;99.90
23637;DHT22;11995;50.842;4.456;2022-12-11T00:58:53;3.00;99.90
23637;DHT22;11995;50.842;4.456;2022-12-11T01:01:22;3.20;99.90
23637;DHT22;11995;50.842;4.456;2022-12-11T01:03:51;3.30;99.90
23637;DHT22;11995;50.842;4.456;2022-12-11T01:06:22;3.40;99.90
23637;DHT22;11995;50.842;4.456;2022-12-11T01:08:50;3.30;99.90
23637;DHT22;11995;50.842;4.456;2022-12-11T01:11:20;3.20;99.90
23637;DHT22;11995;50.842;4.456;2022-12-11T01:13:47;3.20;99.90
23637;DHT22;11995;50.842;4.456;2022-12-11T01:16:15;3.30;99.90
23637;DHT22;11995;50.842;4.456;2022-12-11T01:18:43;3.20;99.90
23637;DHT22;11995;50.842;4.456;2022-12-11T01:21:12;3.20;99.90
23637;DHT22;11995;50.842;4.456;2022-12-11T01:23:40;3.30;99.90
23637;DHT22;11995;50.842;4.456;2022-12-11T01:26:10;3.30;99.90
23637;DHT22;11995;50.842;4.456;2022-12-11T01:28:38;3.20;99.90
23637;DHT22;11995;50.842;4.456;2022-12-11T01:31:10;3.30;99.90
23637;DHT22;11995;50.842;4.456;2022-12-11T01:33:39;3.30;99.90
23637;DHT22;11995;50.842;4.456;2022-12-11T01:36:14;3.40;99.90
23637;DHT22;11995;50.842;4.456;2022-12-11T01:38:44;3.40;99.90
23637;DHT22;11995;50.842;4.456;2022-12-11T01:41:12;3.30;99.90
23637;DHT22;11995;50.842;4.456;2022-12-11T01:44:04;3.20;99.90
23637;DHT22;11995;50.842;4.456;2022-12-11T01:46:30;3.20;99.90
23637;DHT22;11995;50.842;4.456;2022-12-11T01:49:00;3.20;99.90
23637;DHT22;11995;50.842;4.456;2022-12-11T01:51:30;3.10;99.90
23637;DHT22;11995;50.842;4.456;2022-12-11T01:54:02;3.20;99.90
23637;DHT22;11995;50.842;4.456;2022-12-11T01:56:31;3.30;99.90
23637;DHT22;11995;50.842;4.456;2022-12-11T01:59:02;3.20;99.90
23637;DHT22;11995;50.842;4.456;2022-12-11T02:01:34;3.20;99.90
23637;DHT22;11995;50.842;4.456;2022-12-11T02:04:03;3.30;99.90
23637;DHT22;11995;50.842;4.456;2022-12-11T02:09:12;3.40;99.90
23637;DHT22;11995;50.842;4.456;2022-12-11T02:11:45;3.30;99.90
23637;DHT22;11995;50.842;4.456;2022-12-11T02:14:37;3.40;99.90
23637;DHT22;11995;50.842;4.456;2022-12-11T02:16:49;3.60;99.90
23637;DHT22;11995;50.842;4.456;2022-12-11T02:21:56;3.50;99.90
23637;DHT22;11995;50.842;4.456;2022-12-11T02:24:27;3.40;99.90
23637;DHT22;11995;50.842;4.456;2022-12-11T02:29:44;3.40;99.90
23637;DHT22;11995;50.842;4.456;2022-12-11T02:35:09;3.20;99.90
23637;DHT22;11995;50.842;4.456;2022-12-11T02:37:39;3.40;99.90
23637;DHT22;11995;50.842;4.456;2022-12-11T02:40:10;3.30;99.90
23637;DHT22;11995;50.842;4.456;2022-12-11T02:42:40;3.30;99.90
23637;DHT22;11995;50.842;4.456;2022-12-11T02:45:10;3.30;99.90
23637;DHT22;11995;50.842;4.456;2022-12-11T02:47:38;3.50;99.90
23637;DHT22;11995;50.842;4.456;2022-12-11T02:50:11;3.40;99.90
23637;DHT22;11995;50.842;4.456;2022-12-11T02:52:39;3.40;99.90
23637;DHT22;11995;50.842;4.456;2022-12-11T02:55:09;3.30;99.90
23637;DHT22;11995;50.842;4.456;2022-12-11T02:57:41;3.30;99.90
23637;DHT22;11995;50.842;4.456;2022-12-11T03:00:10;3.40;99.90
23637;DHT22;11995;50.842;4.456;2022-12-11T03:02:40;3.30;99.90
23637;DHT22;11995;50.842;4.456;2022-12-11T03:05:09;3.50;99.90
23637;DHT22;11995;50.842;4.456;2022-12-11T03:07:39;3.50;99.90
23637;DHT22;11995;50.842;4.456;2022-12-11T03:10:10;3.40;99.90
23637;DHT22;11995;50.842;4.456;2022-12-11T03:12:41;3.50;99.90
23637;DHT22;11995;50.842;4.456;2022-12-11T03:15:12;3.50;99.90
23637;DHT22;11995;50.842;4.456;2022-12-11T03:17:55;3.60;99.90
23637;DHT22;11995;50.842;4.456;2022-12-11T03:23:17;3.60;99.90
23637;DHT22;11995;50.842;4.456;2022-12-11T03:25:52;3.40;99.90
23637;DHT22;11995;50.842;4.456;2022-12-11T03:28:32;3.30;99.90
23637;DHT22;11995;50.842;4.456;2022-12-11T03:31:02;3.20;99.90
23637;DHT22;11995;50.842;4.456;2022-12-11T03:33:41;3.00;99.90
23637;DHT22;11995;50.842;4.456;2022-12-11T03:36:19;3.00;99.90
23637;DHT22;11995;50.842;4.456;2022-12-11T03:38:49;3.20;99.90
23637;DHT22;11995;50.842;4.456;2022-12-11T03:41:19;3.20;99.90
23637;DHT22;11995;50.842;4.456;2022-12-11T03:43:49;3.20;99.90
23637;DHT22;11995;50.842;4.456;2022-12-11T03:46:19;3.20;99.90
23637;DHT22;11995;50.842;4.456;2022-12-11T03:48:48;3.40;99.90
23637;DHT22;11995;50.842;4.456;2022-12-11T03:51:16;3.50;99.90
23637;DHT22;11995;50.842;4.456;2022-12-11T03:53:45;3.50;99.90
23637;DHT22;11995;50.842;4.456;2022-12-11T03:56:15;3.50;99.90
23637;DHT22;11995;50.842;4.456;2022-12-11T03:58:43;3.20;99.90
23637;DHT22;11995;50.842;4.456;2022-12-11T04:01:11;3.40;99.90
23637;DHT22;11995;50.842;4.456;2022-12-11T04:03:38;3.50;99.90
23637;DHT22;11995;50.842;4.456;2022-12-11T04:06:06;3.50;99.90
23637;DHT22;11995;50.842;4.456;2022-12-11T04:08:34;3.60;99.90
23637;DHT22;11995;50.842;4.456;2022-12-11T04:11:03;3.50;99.90
23637;DHT22;11995;50.842;4.456;2022-12-11T04:13:48;3.40;99.90
23637;DHT22;11995;50.842;4.456;2022-12-11T04:16:17;3.50;99.90
23637;DHT22;11995;50.842;4.456;2022-12-11T04:18:45;3.50;99.90
23637;DHT22;11995;50.842;4.456;2022-12-11T04:21:31;3.50;99.90
23637;DHT22;11995;50.842;4.456;2022-12-11T04:24:16;3.40;99.90
23637;DHT22;11995;50.842;4.456;2022-12-11T04:26:45;3.40;99.90
23637;DHT22;11995;50.842;4.456;2022-12-11T04:29:12;3.20;99.90
23637;DHT22;11995;50.842;4.456;2022-12-11T04:31:40;3.20;99.90
23637;DHT22;11995;50.842;4.456;2022-12-11T04:34:08;3.10;99.90
23637;DHT22;11995;50.842;4.456;2022-12-11T04:36:35;3.10;99.90
23637;DHT22;11995;50.842;4.456;2022-12-11T04:39:04;3.20;99.90
23637;DHT22;11995;50.842;4.456;2022-12-11T04:41:32;3.20;99.90
23637;DHT22;11995;50.842;4.456;2022-12-11T04:44:00;2.90;99.90
23637;DHT22;11995;50.842;4.456;2022-12-11T04:46:27;3.10;99.90
23637;DHT22;11995;50.842;4.456;2022-12-11T04:48:55;3.20;99.90
23637;DHT22;11995;50.842;4.456;2022-12-11T04:51:23;3.30;99.90
23637;DHT22;11995;50.842;4.456;2022-12-11T04:53:51;3.30;99.90
23637;DHT22;11995;50.842;4.456;2022-12-11T04:56:19;3.30;99.90
23637;DHT22;11995;50.842;4.456;2022-12-11T04:58:46;3.30;99.90
23637;DHT22;11995;50.842;4.456;2022-12-11T05:01:17;3.30;99.90
23637;DHT22;11995;50.842;4.456;2022-12-11T05:03:45;3.20;99.90
23637;DHT22;11995;50.842;4.456;2022-12-11T05:06:13;3.40;99.90
23637;DHT22;11995;50.842;4.456;2022-12-11T05:08:42;3.40;99.90
23637;DHT22;11995;50.842;4.456;2022-12-11T05:11:12;3.30;99.90
23637;DHT22;11995;50.842;4.456;2022-12-11T05:13:41;3.30;99.90
23637;DHT22;11995;50.842;4.456;2022-12-11T05:16:12;3.20;99.90
23637;DHT22;11995;50.842;4.456;2022-12-11T05:18:40;3.30;99.90
23637;DHT22;11995;50.842;4.456;2022-12-11T05:21:11;3.40;99.90
23637;DHT22;11995;50.842;4.456;2022-12-11T05:23:41;3.40;99.90
23637;DHT22;11995;50.842;4.456;2022-12-11T05:26:12;3.50;99.90
23637;DHT22;11995;50.842;4.456;2022-12-11T05:28:40;3.40;99.90
23637;DHT22;11995;50.842;4.456;2022-12-11T05:31:18;3.30;99.90
23637;DHT22;11995;50.842;4.456;2022-12-11T05:33:42;3.30;99.90
23637;DHT22;11995;50.842;4.456;2022-12-11T05:36:21;3.20;99.90
23637;DHT22;11995;50.842;4.456;2022-12-11T05:38:49;3.20;99.90
23637;DHT22;11995;50.842;4.456;2022-12-11T05:41:22;3.30;99.90
23637;DHT22;11995;50.842;4.456;2022-12-11T05:43:47;3.30;99.90
23637;DHT22;11995;50.842;4.456;2022-12-11T05:46:17;3.30;99.90
23637;DHT22;11995;50.842;4.456;2022-12-11T05:48:46;3.30;99.90
23637;DHT22;11995;50.842;4.456;2022-12-11T05:51:15;3.30;99.90
23637;DHT22;11995;50.842;4.456;2022-12-11T05:53:44;3.30;99.90
23637;DHT22;11995;50.842;4.456;2022-12-11T05:56:15;3.20;99.90
23637;DHT22;11995;50.842;4.456;2022-12-11T05:58:43;3.20;99.90
23637;DHT22;11995;50.842;4.456;2022-12-11T06:01:17;3.00;99.90
23637;DHT22;11995;50.842;4.456;2022-12-11T06:03:45;3.00;99.90
23637;DHT22;11995;50.842;4.456;2022-12-11T06:06:13;2.90;99.90
23637;DHT22;11995;50.842;4.456;2022-12-11T06:08:40;3.00;99.90
23637;DHT22;11995;50.842;4.456;2022-12-11T06:11:11;2.90;99.90
23637;DHT22;11995;50.842;4.456;2022-12-11T06:13:37;2.80;99.90
23637;DHT22;11995;50.842;4.456;2022-12-11T06:16:06;2.80;99.90
23637;DHT22;11995;50.842;4.456;2022-12-11T06:18:42;2.90;99.90
23637;DHT22;11995;50.842;4.456;2022-12-11T06:21:21;3.00;99.90
23637;DHT22;11995;50.842;4.456;2022-12-11T06:23:51;3.10;99.90
23637;DHT22;11995;50.842;4.456;2022-12-11T06:26:20;3.20;99.90
23637;DHT22;11995;50.842;4.456;2022-12-11T06:28:48;3.10;99.90
23637;DHT22;11995;50.842;4.456;2022-12-11T06:31:16;2.90;99.90
23637;DHT22;11995;50.842;4.456;2022-12-11T06:33:44;2.90;99.90
23637;DHT22;11995;50.842;4.456;2022-12-11T06:36:15;2.90;99.90
23637;DHT22;11995;50.842;4.456;2022-12-11T06:38:43;3.00;99.90
23637;DHT22;11995;50.842;4.456;2022-12-11T06:41:11;2.90;99.90
23637;DHT22;11995;50.842;4.456;2022-12-11T06:43:40;2.40;99.90
23637;DHT22;11995;50.842;4.456;2022-12-11T06:46:15;2.40;99.90
23637;DHT22;11995;50.842;4.456;2022-12-11T06:48:40;2.30;99.90
23637;DHT22;11995;50.842;4.456;2022-12-11T06:51:17;2.40;99.90
23637;DHT22;11995;50.842;4.456;2022-12-11T06:53:41;2.40;99.90
23637;DHT22;11995;50.842;4.456;2022-12-11T06:56:12;2.50;99.90
23637;DHT22;11995;50.842;4.456;2022-12-11T06:58:41;2.60;99.90
23637;DHT22;11995;50.842;4.456;2022-12-11T07:01:17;2.20;99.90
23637;DHT22;11995;50.842;4.456;2022-12-11T07:03:45;2.40;99.90
23637;DHT22;11995;50.842;4.456;2022-12-11T07:06:14;2.40;99.90
23637;DHT22;11995;50.842;4.456;2022-12-11T07:08:41;2.30;99.90
23637;DHT22;11995;50.842;4.456;2022-12-11T07:11:12;2.50;99.90
23637;DHT22;11995;50.842;4.456;2022-12-11T07:13:40;2.50;99.90
23637;DHT22;11995;50.842;4.456;2022-12-11T07:16:10;2.70;99.90
23637;DHT22;11995;50.842;4.456;2022-12-11T07:18:42;2.90;99.90
23637;DHT22;11995;50.842;4.456;2022-12-11T07:21:10;2.90;99.90
23637;DHT22;11995;50.842;4.456;2022-12-11T07:23:39;3.00;99.90
23637;DHT22;11995;50.842;4.456;2022-12-11T07:26:10;2.80;99.90
23637;DHT22;11995;50.842;4.456;2022-12-11T07:28:38;2.80;99.90
23637;DHT22;11995;50.842;4.456;2022-12-11T07:31:12;3.00;99.90
23637;DHT22;11995;50.842;4.456;2022-12-11T07:33:40;3.00;99.90
23637;DHT22;11995;50.842;4.456;2022-12-11T07:36:09;3.00;99.90
23637;DHT22;11995;50.842;4.456;2022-12-11T07:38:37;3.10;99.90
23637;DHT22;11995;50.842;4.456;2022-12-11T07:41:07;2.80;99.90
23637;DHT22;11995;50.842;4.456;2022-12-11T07:43:36;2.60;99.90
23637;DHT22;11995;50.842;4.456;2022-12-11T07:46:14;2.30;99.90
23637;DHT22;11995;50.842;4.456;2022-12-11T07:48:38;2.40;99.90
23637;DHT22;11995;50.842;4.456;2022-12-11T07:51:09;2.40;99.90
23637;DHT22;11995;50.842;4.456;2022-12-11T07:53:37;2.70;99.90
23637;DHT22;11995;50.842;4.456;2022-12-11T07:56:05;2.70;99.90
23637;DHT22;11995;50.842;4.456;2022-12-11T07:58:33;2.80;99.90
23637;DHT22;11995;50.842;4.456;2022-12-11T08:01:01;3.00;99.90
23637;DHT22;11995;50.842;4.456;2022-12-11T08:03:28;2.90;99.90
23637;DHT22;11995;50.842;4.456;2022-12-11T08:05:56;2.70;99.90
23637;DHT22;11995;50.842;4.456;2022-12-11T08:08:24;2.60;99.90
23637;DHT22;11995;50.842;4.456;2022-12-11T08:10:51;2.70;99.90
23637;DHT22;11995;50.842;4.456;2022-12-11T08:13:19;2.70;99.90
23637;DHT22;11995;50.842;4.456;2022-12-11T08:15:46;2.70;99.90
23637;DHT22;11995;50.842;4.456;2022-12-11T08:18:15;2.80;99.90
23637;DHT22;11995;50.842;4.456;2022-12-11T08:20:43;2.60;99.90
23637;DHT22;11995;50.842;4.456;2022-12-11T08:23:10;2.70;99.90
23637;DHT22;11995;50.842;4.456;2022-12-11T08:25:38;2.90;99.90
23637;DHT22;11995;50.842;4.456;2022-12-11T08:28:05;3.00;99.90
23637;DHT22;11995;50.842;4.456;2022-12-11T08:30:33;3.10;99.90
23637;DHT22;11995;50.842;4.456;2022-12-11T08:33:01;2.90;99.90
23637;DHT22;11995;50.842;4.456;2022-12-11T08:35:28;2.80;99.90
23637;DHT22;11995;50.842;4.456;2022-12-11T08:37:56;2.80;99.90
23637;DHT22;11995;50.842;4.456;2022-12-11T08:40:23;2.90;99.90
23637;DHT22;11995;50.842;4.456;2022-12-11T08:42:51;2.90;99.90
23637;DHT22;11995;50.842;4.456;2022-12-11T08:45:18;2.90;99.90
23637;DHT22;11995;50.842;4.456;2022-12-11T08:47:46;3.00;99.90
23637;DHT22;11995;50.842;4.456;2022-12-11T08:50:13;2.80;99.90
23637;DHT22;11995;50.842;4.456;2022-12-11T08:52:41;2.80;99.90
23637;DHT22;11995;50.842;4.456;2022-12-11T08:55:09;2.80;99.90
23637;DHT22;11995;50.842;4.456;2022-12-11T08:57:37;3.00;99.90
23637;DHT22;11995;50.842;4.456;2022-12-11T09:00:07;3.00;99.90
23637;DHT22;11995;50.842;4.456;2022-12-11T09:02:35;3.10;99.90
23637;DHT22;11995;50.842;4.456;2022-12-11T09:05:02;3.20;99.90
23637;DHT22;11995;50.842;4.456;2022-12-11T09:07:37;2.90;99.90
23637;DHT22;11995;50.842;4.456;2022-12-11T09:10:01;2.90;99.90
23637;DHT22;11995;50.842;4.456;2022-12-11T09:12:29;3.10;99.90
23637;DHT22;11995;50.842;4.456;2022-12-11T09:14:56;3.20;99.90
23637;DHT22;11995;50.842;4.456;2022-12-11T09:17:24;3.20;99.90
23637;DHT22;11995;50.842;4.456;2022-12-11T09:19:51;3.20;99.90
23637;DHT22;11995;50.842;4.456;2022-12-11T09:22:19;3.10;99.90
23637;DHT22;11995;50.842;4.456;2022-12-11T09:24:46;3.20;99.90
23637;DHT22;11995;50.842;4.456;2022-12-11T09:27:14;3.10;99.90
23637;DHT22;11995;50.842;4.456;2022-12-11T09:29:42;3.20;99.90
23637;DHT22;11995;50.842;4.456;2022-12-11T09:32:09;3.20;99.90
23637;DHT22;11995;50.842;4.456;2022-12-11T09:34:37;3.00;99.90
23637;DHT22;11995;50.842;4.456;2022-12-11T09:37:05;3.10;99.90
23637;DHT22;11995;50.842;4.456;2022-12-11T09:39:32;3.30;99.90
23637;DHT22;11995;50.842;4.456;2022-12-11T09:42:08;3.10;99.90
23637;DHT22;11995;50.842;4.456;2022-12-11T09:47:33;3.20;99.90
23637;DHT22;11995;50.842;4.456;2022-12-11T09:50:05;3.10;99.90
23637;DHT22;11995;50.842;4.456;2022-12-11T09:52:54;3.10;99.90
23637;DHT22;11995;50.842;4.456;2022-12-11T09:55:20;2.90;99.90
23637;DHT22;11995;50.842;4.456;2022-12-11T10:00:47;3.10;99.90
23637;DHT22;11995;50.842;4.456;2022-12-11T10:03:30;3.20;99.90
23637;DHT22;11995;50.842;4.456;2022-12-11T10:08:52;3.00;99.90
23637;DHT22;11995;50.842;4.456;2022-12-11T10:11:38;3.10;99.90
23637;DHT22;11995;50.842;4.456;2022-12-11T10:14:27;3.10;99.90
23637;DHT22;11995;50.842;4.456;2022-12-11T10:16:56;3.00;99.90
23637;DHT22;11995;50.842;4.456;2022-12-11T10:19:25;3.00;99.90
23637;DHT22;11995;50.842;4.456;2022-12-11T10:21:54;3.10;99.90
23637;DHT22;11995;50.842;4.456;2022-12-11T10:26:57;3.40;99.90
23637;DHT22;11995;50.842;4.456;2022-12-11T10:29:25;3.60;99.90
23637;DHT22;11995;50.842;4.456;2022-12-11T10:31:57;3.50;99.90
23637;DHT22;11995;50.842;4.456;2022-12-11T10:34:33;3.50;99.90
23637;DHT22;11995;50.842;4.456;2022-12-11T10:37:02;3.40;99.90
23637;DHT22;11995;50.842;4.456;2022-12-11T10:39:29;3.30;99.90
23637;DHT22;11995;50.842;4.456;2022-12-11T10:41:57;3.20;99.90
23637;DHT22;11995;50.842;4.456;2022-12-11T10:44:28;3.40;99.90
23637;DHT22;11995;50.842;4.456;2022-12-11T10:47:10;3.60;99.90
23637;DHT22;11995;50.842;4.456;2022-12-11T10:49:51;3.50;99.90
23637;DHT22;11995;50.842;4.456;2022-12-11T10:52:19;3.50;99.90
23637;DHT22;11995;50.842;4.456;2022-12-11T10:54:52;3.30;99.90
23637;DHT22;11995;50.842;4.456;2022-12-11T10:57:24;3.60;99.90
23637;DHT22;11995;50.842;4.456;2022-12-11T10:59:48;3.50;99.90
23637;DHT22;11995;50.842;4.456;2022-12-11T11:02:22;3.70;99.90
23637;DHT22;11995;50.842;4.456;2022-12-11T11:04:50;3.80;99.90
23637;DHT22;11995;50.842;4.456;2022-12-11T11:07:26;3.70;99.90
23637;DHT22;11995;50.842;4.456;2022-12-11T11:12:42;3.60;99.90
23637;DHT22;11995;50.842;4.456;2022-12-11T11:15:12;3.70;99.90
23637;DHT22;11995;50.842;4.456;2022-12-11T11:17:46;3.80;99.90
23637;DHT22;11995;50.842;4.456;2022-12-11T11:20:18;3.90;99.90
23637;DHT22;11995;50.842;4.456;2022-12-11T11:22:50;3.80;99.90
23637;DHT22;11995;50.842;4.456;2022-12-11T11:25:24;3.80;99.90
23637;DHT22;11995;50.842;4.456;2022-12-11T11:27:54;3.60;99.90
23637;DHT22;11995;50.842;4.456;2022-12-11T11:30:25;3.50;99.90
23637;DHT22;11995;50.842;4.456;2022-12-11T11:33:04;3.40;99.90
23637;DHT22;11995;50.842;4.456;2022-12-11T11:35:32;3.40;99.90
23637;DHT22;11995;50.842;4.456;2022-12-11T11:38:15;3.70;99.90
23637;DHT22;11995;50.842;4.456;2022-12-11T11:40:46;3.90;99.90
23637;DHT22;11995;50.842;4.456;2022-12-11T11:48:49;4.00;99.90
23637;DHT22;11995;50.842;4.456;2022-12-11T11:51:32;4.20;99.90
23637;DHT22;11995;50.842;4.456;2022-12-11T11:54:02;4.30;99.90
23637;DHT22;11995;50.842;4.456;2022-12-11T11:56:36;4.10;99.90
23637;DHT22;11995;50.842;4.456;2022-12-11T11:59:22;4.00;99.90
23637;DHT22;11995;50.842;4.456;2022-12-11T12:01:52;4.00;99.90
23637;DHT22;11995;50.842;4.456;2022-12-11T12:04:20;4.10;99.90
23637;DHT22;11995;50.842;4.456;2022-12-11T12:18:20;4.10;99.90
23637;DHT22;11995;50.842;4.456;2022-12-11T12:23:52;3.80;99.90
23637;DHT22;11995;50.842;4.456;2022-12-11T12:26:26;3.90;99.90
23637;DHT22;11995;50.842;4.456;2022-12-11T12:29:28;4.00;99.90
23637;DHT22;11995;50.842;4.456;2022-12-11T12:34:36;4.20;99.90
23637;DHT22;11995;50.842;4.456;2022-12-11T12:42:56;4.30;99.90
23637;DHT22;11995;50.842;4.456;2022-12-11T12:45:47;4.20;99.90
23637;DHT22;11995;50.842;4.456;2022-12-11T12:48:13;4.00;99.90
23637;DHT22;11995;50.842;4.456;2022-12-11T12:50:46;3.90;99.90
23637;DHT22;11995;50.842;4.456;2022-12-11T12:53:22;3.80;99.90
23637;DHT22;11995;50.842;4.456;2022-12-11T12:55:52;3.70;99.90
23637;DHT22;11995;50.842;4.456;2022-12-11T12:58:29;3.80;99.90
23637;DHT22;11995;50.842;4.456;2022-12-11T13:01:14;3.80;99.90
23637;DHT22;11995;50.842;4.456;2022-12-11T13:06:36;3.80;99.90
23637;DHT22;11995;50.842;4.456;2022-12-11T13:09:23;3.70;99.90
23637;DHT22;11995;50.842;4.456;2022-12-11T13:11:53;3.50;99.90
23637;DHT22;11995;50.842;4.456;2022-12-11T13:14:28;3.50;99.90
23637;DHT22;11995;50.842;4.456;2022-12-11T13:17:23;3.50;99.90
23637;DHT22;11995;50.842;4.456;2022-12-11T13:20:12;3.60;99.90
23637;DHT22;11995;50.842;4.456;2022-12-11T13:22:53;3.60;99.90
23637;DHT22;11995;50.842;4.456;2022-12-11T13:25:30;3.60;99.90
23637;DHT22;11995;50.842;4.456;2022-12-11T13:28:18;3.70;99.90
23637;DHT22;11995;50.842;4.456;2022-12-11T13:30:36;3.70;99.90
23637;DHT22;11995;50.842;4.456;2022-12-11T13:33:16;3.70;99.90
23637;DHT22;11995;50.842;4.456;2022-12-11T13:35:35;3.70;99.90
23637;DHT22;11995;50.842;4.456;2022-12-11T13:38:14;3.70;99.90
23637;DHT22;11995;50.842;4.456;2022-12-11T13:40:44;3.70;99.90
23637;DHT22;11995;50.842;4.456;2022-12-11T13:43:15;3.60;99.90
23637;DHT22;11995;50.842;4.456;2022-12-11T13:45:51;3.60;99.90
23637;DHT22;11995;50.842;4.456;2022-12-11T13:48:34;3.60;99.90
23637;DHT22;11995;50.842;4.456;2022-12-11T13:51:04;3.50;99.90
23637;DHT22;11995;50.842;4.456;2022-12-11T13:53:32;3.60;99.90
23637;DHT22;11995;50.842;4.456;2022-12-11T13:56:03;3.60;99.90
23637;DHT22;11995;50.842;4.456;2022-12-11T13:58:36;3.70;99.90
23637;DHT22;11995;50.842;4.456;2022-12-11T14:01:08;3.70;99.90
23637;DHT22;11995;50.842;4.456;2022-12-11T14:03:47;3.70;99.90
23637;DHT22;11995;50.842;4.456;2022-12-11T14:06:11;3.60;99.90
23637;DHT22;11995;50.842;4.456;2022-12-11T14:08:41;3.50;99.90
23637;DHT22;11995;50.842;4.456;2022-12-11T14:11:21;3.60;99.90
23637;DHT22;11995;50.842;4.456;2022-12-11T14:13:44;3.50;99.90
23637;DHT22;11995;50.842;4.456;2022-12-11T14:16:22;3.50;99.90
23637;DHT22;11995;50.842;4.456;2022-12-11T14:18:54;3.50;99.90
23637;DHT22;11995;50.842;4.456;2022-12-11T14:21:24;3.40;99.90
23637;DHT22;11995;50.842;4.456;2022-12-11T14:23:58;3.40;99.90
23637;DHT22;11995;50.842;4.456;2022-12-11T14:26:24;3.40;99.90
23637;DHT22;11995;50.842;4.456;2022-12-11T14:28:53;3.50;99.90
23637;DHT22;11995;50.842;4.456;2022-12-11T14:31:30;3.40;99.90
23637;DHT22;11995;50.842;4.456;2022-12-11T14:34:04;3.40;99.90
23637;DHT22;11995;50.842;4.456;2022-12-11T14:36:32;3.40;99.90
23637;DHT22;11995;50.842;4.456;2022-12-11T14:39:03;3.40;99.90
23637;DHT22;11995;50.842;4.456;2022-12-11T14:44:21;3.50;99.90
23637;DHT22;11995;50.842;4.456;2022-12-11T14:46:52;3.70;99.90
23637;DHT22;11995;50.842;4.456;2022-12-11T14:49:23;3.70;99.90
23637;DHT22;11995;50.842;4.456;2022-12-11T14:51:53;3.70;99.90
23637;DHT22;11995;50.842;4.456;2022-12-11T14:54:33;3.70;99.90
23637;DHT22;11995;50.842;4.456;2022-12-11T14:56:58;3.70;99.90
23637;DHT22;11995;50.842;4.456;2022-12-11T14:59:28;3.60;99.90
23637;DHT22;11995;50.842;4.456;2022-12-11T15:02:00;3.60;99.90
23637;DHT22;11995;50.842;4.456;2022-12-11T15:04:30;3.60;99.90
23637;DHT22;11995;50.842;4.456;2022-12-11T15:06:59;3.60;99.90
23637;DHT22;11995;50.842;4.456;2022-12-11T15:09:33;3.70;99.90
23637;DHT22;11995;50.842;4.456;2022-12-11T15:12:06;3.70;99.90
23637;DHT22;11995;50.842;4.456;2022-12-11T15:14:28;3.60;99.90
23637;DHT22;11995;50.842;4.456;2022-12-11T15:16:59;3.50;99.90
23637;DHT22;11995;50.842;4.456;2022-12-11T15:19:28;3.50;99.90
23637;DHT22;11995;50.842;4.456;2022-12-11T15:22:04;3.60;99.90
23637;DHT22;11995;50.842;4.456;2022-12-11T15:24:41;3.50;99.90
23637;DHT22;11995;50.842;4.456;2022-12-11T15:27:30;3.50;99.90
23637;DHT22;11995;50.842;4.456;2022-12-11T15:29:57;3.50;99.90
23637;DHT22;11995;50.842;4.456;2022-12-11T15:32:25;3.60;99.90
23637;DHT22;11995;50.842;4.456;2022-12-11T15:34:57;3.60;99.90
23637;DHT22;11995;50.842;4.456;2022-12-11T15:37:33;3.60;99.90
23637;DHT22;11995;50.842;4.456;2022-12-11T15:40:06;3.70;99.90
23637;DHT22;11995;50.842;4.456;2022-12-11T15:42:36;3.60;99.90
23637;DHT22;11995;50.842;4.456;2022-12-11T15:45:08;3.60;99.90
23637;DHT22;11995;50.842;4.456;2022-12-11T15:47:37;3.50;99.90
23637;DHT22;11995;50.842;4.456;2022-12-11T15:52:45;3.50;99.90
23637;DHT22;11995;50.842;4.456;2022-12-11T15:55:13;3.50;99.90
23637;DHT22;11995;50.842;4.456;2022-12-11T15:57:49;3.50;99.90
23637;DHT22;11995;50.842;4.456;2022-12-11T16:00:16;3.50;99.90
23637;DHT22;11995;50.842;4.456;2022-12-11T16:02:44;3.50;99.90
23637;DHT22;11995;50.842;4.456;2022-12-11T16:05:12;3.50;99.90
23637;DHT22;11995;50.842;4.456;2022-12-11T16:07:40;3.50;99.90
23637;DHT22;11995;50.842;4.456;2022-12-11T16:10:13;3.50;99.90
23637;DHT22;11995;50.842;4.456;2022-12-11T16:12:41;3.50;99.90
23637;DHT22;11995;50.842;4.456;2022-12-11T16:15:14;3.40;99.90
23637;DHT22;11995;50.842;4.456;2022-12-11T16:17:39;3.40;99.90
23637;DHT22;11995;50.842;4.456;2022-12-11T16:20:08;3.40;99.90
23637;DHT22;11995;50.842;4.456;2022-12-11T16:22:36;3.50;99.90
23637;DHT22;11995;50.842;4.456;2022-12-11T16:25:04;3.50;99.90
23637;DHT22;11995;50.842;4.456;2022-12-11T16:27:32;3.50;99.90
23637;DHT22;11995;50.842;4.456;2022-12-11T16:29:59;3.50;99.90
23637;DHT22;11995;50.842;4.456;2022-12-11T16:32:27;3.50;99.90
23637;DHT22;11995;50.842;4.456;2022-12-11T16:34:59;3.50;99.90
23637;DHT22;11995;50.842;4.456;2022-12-11T16:37:26;3.50;99.90
23637;DHT22;11995;50.842;4.456;2022-12-11T16:39:54;3.50;99.90
23637;DHT22;11995;50.842;4.456;2022-12-11T16:42:22;3.50;99.90
23637;DHT22;11995;50.842;4.456;2022-12-11T16:44:49;3.50;99.90
23637;DHT22;11995;50.842;4.456;2022-12-11T16:47:17;3.50;99.90
23637;DHT22;11995;50.842;4.456;2022-12-11T16:49:44;3.50;99.90
23637;DHT22;11995;50.842;4.456;2022-12-11T16:52:12;3.50;99.90
23637;DHT22;11995;50.842;4.456;2022-12-11T16:54:39;3.50;99.90
23637;DHT22;11995;50.842;4.456;2022-12-11T16:57:07;3.50;99.90
23637;DHT22;11995;50.842;4.456;2022-12-11T16:59:35;3.40;99.90
23637;DHT22;11995;50.842;4.456;2022-12-11T17:02:02;3.50;99.90
23637;DHT22;11995;50.842;4.456;2022-12-11T17:04:30;3.40;99.90
23637;DHT22;11995;50.842;4.456;2022-12-11T17:06:58;3.40;99.90
23637;DHT22;11995;50.842;4.456;2022-12-11T17:09:25;3.40;99.90
23637;DHT22;11995;50.842;4.456;2022-12-11T17:11:53;3.40;99.90